createdAt,value
2016-07-06T00:00:12.245Z,0
2016-07-06T00:01:12.239Z,0
2016-07-06T00:02:12.283Z,0
2016-07-06T00:03:12.388Z,0
2016-07-06T00:04:12.401Z,0
2016-07-06T00:05:12.412Z,0
2016-07-06T00:06:12.414Z,0
2016-07-06T00:07:12.416Z,0
2016-07-06T00:08:12.561Z,0
2016-07-06T00:09:12.574Z,0
2016-07-06T00:10:12.579Z,0
2016-07-06T00:11:12.579Z,0
2016-07-06T00:12:12.590Z,0
2016-07-06T00:13:12.605Z,0
2016-07-06T00:14:12.619Z,0
2016-07-06T00:15:12.623Z,0
2016-07-06T00:16:12.609Z,0
2016-07-06T00:17:12.607Z,0
2016-07-06T00:18:12.621Z,0
2016-07-06T00:19:12.640Z,0
2016-07-06T00:20:12.661Z,0
2016-07-06T00:21:12.708Z,0
2016-07-06T00:22:12.711Z,0
2016-07-06T00:23:12.752Z,0
2016-07-06T00:24:12.775Z,0
2016-07-06T00:25:12.788Z,0
2016-07-06T00:26:12.801Z,0
2016-07-06T00:27:12.849Z,0
2016-07-06T00:28:12.869Z,0
2016-07-06T00:29:12.908Z,0
2016-07-06T00:30:12.916Z,0
2016-07-06T00:31:12.985Z,0
2016-07-06T00:32:12.987Z,0
2016-07-06T00:33:13.020Z,0
2016-07-06T00:34:13.006Z,0
2016-07-06T00:35:13.036Z,0
2016-07-06T00:36:13.068Z,0
2016-07-06T00:37:13.110Z,0
2016-07-06T00:38:13.140Z,0
2016-07-06T00:39:13.134Z,0
2016-07-06T00:40:13.185Z,0
2016-07-06T00:41:13.219Z,0
2016-07-06T00:42:13.238Z,0
2016-07-06T00:43:13.256Z,0
2016-07-06T00:44:13.290Z,0
2016-07-06T00:45:13.317Z,0
2016-07-06T00:46:13.346Z,0
2016-07-06T00:47:13.361Z,0
2016-07-06T00:48:13.407Z,0
2016-07-06T00:49:13.428Z,0
2016-07-06T00:50:13.440Z,0
2016-07-06T00:51:13.472Z,0
2016-07-06T00:52:13.499Z,0
2016-07-06T00:53:13.506Z,0
2016-07-06T00:54:13.536Z,0
2016-07-06T00:55:13.587Z,0
2016-07-06T00:56:13.608Z,0
2016-07-06T00:57:13.626Z,0
2016-07-06T00:58:13.659Z,0
2016-07-06T00:59:13.676Z,0
2016-07-06T01:00:14.388Z,0
2016-07-06T01:01:13.728Z,0
2016-07-06T01:02:13.756Z,0
2016-07-06T01:03:13.782Z,0
2016-07-06T01:04:13.810Z,0
2016-07-06T01:05:13.836Z,0
2016-07-06T01:06:13.860Z,0
2016-07-06T01:07:13.875Z,0
2016-07-06T01:08:13.966Z,0
2016-07-06T01:09:14.058Z,0
2016-07-06T01:10:14.020Z,0
2016-07-06T01:11:14.107Z,0
2016-07-06T01:12:14.071Z,0
2016-07-06T01:13:14.037Z,0
2016-07-06T01:14:14.054Z,0
2016-07-06T01:15:14.085Z,0
2016-07-06T01:16:14.112Z,0
2016-07-06T01:17:14.136Z,0
2016-07-06T01:18:14.145Z,0
2016-07-06T01:19:14.169Z,0
2016-07-06T01:20:14.309Z,0
2016-07-06T01:21:14.318Z,0
2016-07-06T01:22:14.330Z,0
2016-07-06T01:23:14.338Z,0
2016-07-06T01:24:14.487Z,0
2016-07-06T01:25:14.505Z,0
2016-07-06T01:26:14.509Z,0
2016-07-06T01:27:14.527Z,0
2016-07-06T01:28:14.537Z,0
2016-07-06T01:29:14.527Z,0
2016-07-06T01:30:14.534Z,0
2016-07-06T01:31:14.538Z,0
2016-07-06T01:32:14.592Z,0
2016-07-06T01:33:14.595Z,0
2016-07-06T01:34:14.594Z,0
2016-07-06T01:35:14.681Z,0
2016-07-06T01:36:14.726Z,0
2016-07-06T01:37:14.732Z,0
2016-07-06T01:38:14.742Z,0
2016-07-06T01:39:14.729Z,0
2016-07-06T01:40:14.732Z,0
2016-07-06T01:41:14.746Z,0
2016-07-06T01:42:14.765Z,0
2016-07-06T01:43:14.783Z,0
2016-07-06T01:44:14.815Z,0
2016-07-06T01:45:14.845Z,0
2016-07-06T01:46:14.854Z,0
2016-07-06T01:47:14.888Z,0
2016-07-06T01:48:14.917Z,0
2016-07-06T01:49:14.953Z,0
2016-07-06T01:50:14.966Z,0
2016-07-06T01:51:14.986Z,0
2016-07-06T01:52:15.016Z,0
2016-07-06T01:53:15.041Z,0
2016-07-06T01:54:15.078Z,0
2016-07-06T01:55:15.089Z,0
2016-07-06T01:56:15.720Z,0
2016-07-06T01:57:15.147Z,0
2016-07-06T01:58:15.175Z,0
2016-07-06T01:59:15.190Z,0
2016-07-06T02:00:15.221Z,0
2016-07-06T02:01:15.246Z,0
2016-07-06T02:02:15.274Z,0
2016-07-06T02:03:15.295Z,0
2016-07-06T02:04:15.929Z,0
2016-07-06T02:05:15.348Z,0
2016-07-06T02:06:15.990Z,0
2016-07-06T02:07:15.456Z,0
2016-07-06T02:08:15.473Z,0
2016-07-06T02:09:15.449Z,0
2016-07-06T02:10:15.470Z,0
2016-07-06T02:11:15.486Z,0
2016-07-06T02:12:15.519Z,0
2016-07-06T02:13:15.543Z,0
2016-07-06T02:14:15.562Z,0
2016-07-06T02:15:15.596Z,0
2016-07-06T02:16:15.623Z,0
2016-07-06T02:17:15.648Z,0
2016-07-06T02:18:15.672Z,0
2016-07-06T02:19:15.708Z,0
2016-07-06T02:20:15.726Z,0
2016-07-06T02:21:15.793Z,0
2016-07-06T02:22:15.806Z,0
2016-07-06T02:23:15.798Z,0
2016-07-06T02:24:15.828Z,0
2016-07-06T02:25:16.572Z,0
2016-07-06T02:26:16.580Z,0
2016-07-06T02:27:16.514Z,0
2016-07-06T02:28:15.915Z,0
2016-07-06T02:29:15.945Z,0
2016-07-06T02:30:15.970Z,0
2016-07-06T02:31:16.641Z,0
2016-07-06T02:32:16.009Z,0
2016-07-06T02:33:16.031Z,0
2016-07-06T02:34:16.058Z,0
2016-07-06T02:35:16.083Z,0
2016-07-06T02:36:16.114Z,4
2016-07-06T02:37:16.139Z,4
2016-07-06T02:38:16.160Z,4
2016-07-06T02:39:16.191Z,0
2016-07-06T02:40:16.226Z,0
2016-07-06T02:41:16.247Z,4
2016-07-06T02:42:16.266Z,4
2016-07-06T02:43:16.381Z,4
2016-07-06T02:44:16.432Z,4
2016-07-06T02:45:16.393Z,4
2016-07-06T02:46:16.571Z,4
2016-07-06T02:47:16.437Z,4
2016-07-06T02:48:16.528Z,8
2016-07-06T02:49:16.537Z,8
2016-07-06T02:50:16.523Z,4
2016-07-06T02:51:16.545Z,8
2016-07-06T02:52:16.700Z,8
2016-07-06T02:53:16.709Z,8
2016-07-06T02:54:16.713Z,12
2016-07-06T02:55:16.724Z,8
2016-07-06T02:56:16.729Z,12
2016-07-06T02:57:16.755Z,12
2016-07-06T02:58:16.751Z,12
2016-07-06T02:59:16.756Z,16
2016-07-06T03:00:16.756Z,16
2016-07-06T03:01:16.749Z,16
2016-07-06T03:02:16.770Z,20
2016-07-06T03:03:16.781Z,20
2016-07-06T03:04:16.810Z,24
2016-07-06T03:05:16.829Z,28
2016-07-06T03:06:16.855Z,28
2016-07-06T03:07:16.872Z,28
2016-07-06T03:08:16.889Z,32
2016-07-06T03:09:16.914Z,36
2016-07-06T03:10:16.940Z,36
2016-07-06T03:11:16.973Z,36
2016-07-06T03:12:16.984Z,44
2016-07-06T03:13:17.614Z,44
2016-07-06T03:14:17.037Z,44
2016-07-06T03:15:17.058Z,44
2016-07-06T03:16:17.063Z,44
2016-07-06T03:17:17.097Z,44
2016-07-06T03:18:17.136Z,48
2016-07-06T03:19:17.148Z,52
2016-07-06T03:20:17.190Z,52
2016-07-06T03:21:17.196Z,56
2016-07-06T03:22:17.261Z,56
2016-07-06T03:23:17.257Z,60
2016-07-06T03:24:17.293Z,64
2016-07-06T03:25:17.289Z,64
2016-07-06T03:26:17.347Z,68
2016-07-06T03:27:17.363Z,68
2016-07-06T03:28:17.390Z,72
2016-07-06T03:29:17.415Z,76
2016-07-06T03:30:17.440Z,76
2016-07-06T03:31:17.466Z,80
2016-07-06T03:32:17.500Z,80
2016-07-06T03:33:17.519Z,84
2016-07-06T03:34:17.543Z,84
2016-07-06T03:35:17.568Z,88
2016-07-06T03:36:17.592Z,88
2016-07-06T03:37:17.603Z,92
2016-07-06T03:38:17.638Z,96
2016-07-06T03:39:17.671Z,96
2016-07-06T03:40:17.680Z,100
2016-07-06T03:41:17.696Z,100
2016-07-06T03:42:17.738Z,104
2016-07-06T03:43:17.786Z,104
2016-07-06T03:44:17.780Z,104
2016-07-06T03:45:17.800Z,112
2016-07-06T03:46:17.832Z,112
2016-07-06T03:47:17.844Z,112
2016-07-06T03:48:17.870Z,116
2016-07-06T03:49:17.883Z,120
2016-07-06T03:50:17.911Z,120
2016-07-06T03:51:17.924Z,124
2016-07-06T03:52:17.975Z,124
2016-07-06T03:53:17.996Z,128
2016-07-06T03:54:18.020Z,132
2016-07-06T03:55:18.057Z,128
2016-07-06T03:56:18.078Z,132
2016-07-06T03:57:18.105Z,132
2016-07-06T03:58:18.735Z,140
2016-07-06T03:59:18.748Z,144
2016-07-06T04:00:18.153Z,156
2016-07-06T04:01:18.190Z,168
2016-07-06T04:02:18.194Z,168
2016-07-06T04:03:18.230Z,160
2016-07-06T04:04:18.275Z,152
2016-07-06T04:05:18.299Z,152
2016-07-06T04:06:18.326Z,156
2016-07-06T04:07:18.321Z,160
2016-07-06T04:08:18.370Z,172
2016-07-06T04:09:18.375Z,180
2016-07-06T04:10:18.428Z,184
2016-07-06T04:11:18.535Z,184
2016-07-06T04:12:18.463Z,176
2016-07-06T04:13:18.489Z,184
2016-07-06T04:14:18.502Z,216
2016-07-06T04:15:18.639Z,268
2016-07-06T04:16:18.644Z,324
2016-07-06T04:17:18.575Z,332
2016-07-06T04:18:18.698Z,336
2016-07-06T04:19:18.637Z,356
2016-07-06T04:20:18.637Z,380
2016-07-06T04:21:18.670Z,372
2016-07-06T04:22:18.699Z,336
2016-07-06T04:23:18.733Z,356
2016-07-06T04:24:18.841Z,352
2016-07-06T04:25:18.782Z,372
2016-07-06T04:26:18.807Z,372
2016-07-06T04:27:18.811Z,412
2016-07-06T04:28:19.654Z,420
2016-07-06T04:29:18.920Z,428
2016-07-06T04:30:18.940Z,420
2016-07-06T04:31:18.924Z,444
2016-07-06T04:32:18.946Z,440
2016-07-06T04:33:18.957Z,424
2016-07-06T04:34:19.070Z,424
2016-07-06T04:35:19.021Z,460
2016-07-06T04:36:19.031Z,472
2016-07-06T04:37:19.049Z,492
2016-07-06T04:38:19.079Z,508
2016-07-06T04:39:19.194Z,484
2016-07-06T04:40:19.127Z,512
2016-07-06T04:41:19.765Z,496
2016-07-06T04:42:19.565Z,484
2016-07-06T04:43:19.196Z,444
2016-07-06T04:44:19.432Z,444
2016-07-06T04:45:19.335Z,424
2016-07-06T04:46:19.368Z,412
2016-07-06T04:47:19.289Z,440
2016-07-06T04:48:19.317Z,448
2016-07-06T04:49:19.468Z,440
2016-07-06T04:50:19.358Z,424
2016-07-06T04:51:19.394Z,396
2016-07-06T04:52:20.016Z,412
2016-07-06T04:53:19.441Z,392
2016-07-06T04:54:19.469Z,372
2016-07-06T04:55:19.583Z,376
2016-07-06T04:56:19.513Z,456
2016-07-06T04:57:19.534Z,536
2016-07-06T04:58:19.577Z,564
2016-07-06T04:59:19.597Z,580
2016-07-06T05:00:20.303Z,580
2016-07-06T05:01:19.646Z,580
2016-07-06T05:02:19.652Z,600
2016-07-06T05:03:19.667Z,600
2016-07-06T05:04:19.698Z,604
2016-07-06T05:05:19.709Z,576
2016-07-06T05:06:19.844Z,568
2016-07-06T05:07:19.769Z,584
2016-07-06T05:08:19.796Z,620
2016-07-06T05:09:19.829Z,668
2016-07-06T05:10:19.947Z,704
2016-07-06T05:11:19.879Z,696
2016-07-06T05:12:19.903Z,688
2016-07-06T05:13:19.911Z,724
2016-07-06T05:14:19.996Z,724
2016-07-06T05:15:19.971Z,672
2016-07-06T05:16:20.640Z,544
2016-07-06T05:17:20.061Z,524
2016-07-06T05:18:20.071Z,600
2016-07-06T05:19:20.069Z,684
2016-07-06T05:20:20.088Z,760
2016-07-06T05:21:20.204Z,792
2016-07-06T05:22:20.365Z,732
2016-07-06T05:23:20.787Z,712
2016-07-06T05:24:20.297Z,744
2016-07-06T05:25:20.223Z,864
2016-07-06T05:26:20.273Z,908
2016-07-06T05:27:20.265Z,884
2016-07-06T05:28:20.288Z,772
2016-07-06T05:29:20.315Z,820
2016-07-06T05:30:20.335Z,688
2016-07-06T05:31:20.540Z,736
2016-07-06T05:32:20.478Z,744
2016-07-06T05:33:20.402Z,776
2016-07-06T05:34:20.427Z,912
2016-07-06T05:35:21.064Z,852
2016-07-06T05:36:20.458Z,732
2016-07-06T05:37:20.499Z,752
2016-07-06T05:38:20.524Z,728
2016-07-06T05:39:20.539Z,684
2016-07-06T05:40:20.747Z,736
2016-07-06T05:41:20.703Z,768
2016-07-06T05:42:20.610Z,840
2016-07-06T05:43:20.711Z,812
2016-07-06T05:44:20.675Z,876
2016-07-06T05:45:20.699Z,936
2016-07-06T05:46:20.729Z,920
2016-07-06T05:47:21.368Z,908
2016-07-06T05:48:20.834Z,896
2016-07-06T05:49:20.805Z,920
2016-07-06T05:50:20.924Z,908
2016-07-06T05:51:20.945Z,880
2016-07-06T05:52:20.872Z,816
2016-07-06T05:53:20.986Z,732
2016-07-06T05:54:20.922Z,672
2016-07-06T05:55:20.949Z,636
2016-07-06T05:56:20.974Z,600
2016-07-06T05:57:20.976Z,588
2016-07-06T05:58:21.007Z,444
2016-07-06T05:59:21.618Z,280
2016-07-06T06:00:21.063Z,256
2016-07-06T06:01:21.171Z,244
2016-07-06T06:02:21.193Z,244
2016-07-06T06:03:21.127Z,256
2016-07-06T06:04:21.150Z,264
2016-07-06T06:05:21.188Z,272
2016-07-06T06:06:21.209Z,276
2016-07-06T06:07:21.229Z,280
2016-07-06T06:08:21.340Z,292
2016-07-06T06:09:21.283Z,340
2016-07-06T06:10:21.312Z,456
2016-07-06T06:11:21.326Z,564
2016-07-06T06:12:21.327Z,536
2016-07-06T06:13:21.984Z,600
2016-07-06T06:14:21.400Z,952
2016-07-06T06:15:21.407Z,1120
2016-07-06T06:16:21.441Z,884
2016-07-06T06:17:21.480Z,1028
2016-07-06T06:18:21.484Z,1092
2016-07-06T06:19:21.557Z,1144
2016-07-06T06:20:21.540Z,888
2016-07-06T06:21:21.565Z,888
2016-07-06T06:22:21.582Z,684
2016-07-06T06:23:21.602Z,684
2016-07-06T06:24:21.638Z,528
2016-07-06T06:25:21.667Z,392
2016-07-06T06:26:21.680Z,340
2016-07-06T06:27:21.697Z,384
2016-07-06T06:28:21.722Z,592
2016-07-06T06:29:21.752Z,1016
2016-07-06T06:30:22.384Z,1100
2016-07-06T06:31:21.799Z,1008
2016-07-06T06:32:21.815Z,928
2016-07-06T06:33:21.836Z,1248
2016-07-06T06:34:21.867Z,1404
2016-07-06T06:35:21.863Z,1312
2016-07-06T06:36:21.919Z,976
2016-07-06T06:37:22.554Z,588
2016-07-06T06:38:21.962Z,1092
2016-07-06T06:39:21.987Z,1740
2016-07-06T06:40:22.015Z,1540
2016-07-06T06:41:22.055Z,1192
2016-07-06T06:42:22.059Z,1452
2016-07-06T06:43:22.147Z,1408
2016-07-06T06:44:22.110Z,1124
2016-07-06T06:45:22.124Z,1232
2016-07-06T06:46:22.164Z,1076
2016-07-06T06:47:22.177Z,764
2016-07-06T06:48:22.793Z,616
2016-07-06T06:49:22.241Z,732
2016-07-06T06:50:22.232Z,1012
2016-07-06T06:51:22.275Z,1172
2016-07-06T06:52:22.293Z,1264
2016-07-06T06:53:22.939Z,1104
2016-07-06T06:54:22.362Z,1184
2016-07-06T06:55:22.371Z,1120
2016-07-06T06:56:22.403Z,1144
2016-07-06T06:57:22.395Z,900
2016-07-06T06:58:22.431Z,1004
2016-07-06T06:59:23.065Z,1280
2016-07-06T07:00:22.488Z,1236
2016-07-06T07:01:22.495Z,1060
2016-07-06T07:02:22.521Z,904
2016-07-06T07:03:23.169Z,912
2016-07-06T07:04:22.592Z,1176
2016-07-06T07:05:23.222Z,1420
2016-07-06T07:06:22.638Z,1168
2016-07-06T07:07:22.660Z,1000
2016-07-06T07:08:22.732Z,848
2016-07-06T07:09:22.714Z,1064
2016-07-06T07:10:22.737Z,1164
2016-07-06T07:11:22.741Z,772
2016-07-06T07:12:22.764Z,788
2016-07-06T07:13:22.810Z,1320
2016-07-06T07:14:22.818Z,1280
2016-07-06T07:15:22.861Z,1272
2016-07-06T07:16:22.885Z,1068
2016-07-06T07:17:22.905Z,1028
2016-07-06T07:18:22.934Z,1664
2016-07-06T07:19:22.972Z,1876
2016-07-06T07:20:22.989Z,2216
2016-07-06T07:21:23.013Z,2504
2016-07-06T07:22:23.031Z,2568
2016-07-06T07:23:23.057Z,1612
2016-07-06T07:24:23.078Z,1428
2016-07-06T07:25:23.125Z,768
2016-07-06T07:26:23.118Z,820
2016-07-06T07:27:23.172Z,948
2016-07-06T07:28:23.185Z,940
2016-07-06T07:29:23.208Z,768
2016-07-06T07:30:23.224Z,552
2016-07-06T07:31:23.267Z,440
2016-07-06T07:32:23.295Z,464
2016-07-06T07:33:23.308Z,496
2016-07-06T07:34:23.320Z,480
2016-07-06T07:35:23.347Z,432
2016-07-06T07:36:23.389Z,384
2016-07-06T07:37:23.391Z,332
2016-07-06T07:38:23.413Z,348
2016-07-06T07:39:23.439Z,796
2016-07-06T07:40:23.489Z,1148
2016-07-06T07:41:23.502Z,924
2016-07-06T07:42:23.625Z,788
2016-07-06T07:43:23.634Z,1656
2016-07-06T07:44:23.646Z,2564
2016-07-06T07:45:23.645Z,2828
2016-07-06T07:46:23.648Z,1812
2016-07-06T07:47:24.261Z,1880
2016-07-06T07:48:23.799Z,1712
2016-07-06T07:49:23.814Z,1292
2016-07-06T07:50:23.817Z,1368
2016-07-06T07:51:23.846Z,1532
2016-07-06T07:52:23.827Z,1348
2016-07-06T07:53:23.867Z,1040
2016-07-06T07:54:23.875Z,1148
2016-07-06T07:55:23.914Z,1460
2016-07-06T07:56:23.920Z,1140
2016-07-06T07:57:23.940Z,1336
2016-07-06T07:58:23.905Z,1244
2016-07-06T07:59:23.934Z,1072
2016-07-06T08:00:23.950Z,1140
2016-07-06T08:01:23.989Z,1352
2016-07-06T08:02:24.623Z,1140
2016-07-06T08:03:24.643Z,740
2016-07-06T08:04:24.061Z,520
2016-07-06T08:05:24.095Z,500
2016-07-06T08:06:24.199Z,624
2016-07-06T08:07:24.136Z,648
2016-07-06T08:08:24.163Z,768
2016-07-06T08:09:24.196Z,1140
2016-07-06T08:10:24.201Z,2008
2016-07-06T08:11:24.228Z,1948
2016-07-06T08:12:24.950Z,1828
2016-07-06T08:13:24.260Z,1000
2016-07-06T08:14:24.300Z,508
2016-07-06T08:15:24.326Z,584
2016-07-06T08:16:24.343Z,572
2016-07-06T08:17:24.360Z,532
2016-07-06T08:18:24.384Z,856
2016-07-06T08:19:24.417Z,928
2016-07-06T08:20:24.442Z,692
2016-07-06T08:21:25.078Z,780
2016-07-06T08:22:24.591Z,828
2016-07-06T08:23:24.601Z,1108
2016-07-06T08:24:24.623Z,900
2016-07-06T08:25:24.633Z,1256
2016-07-06T08:26:24.642Z,1760
2016-07-06T08:27:24.656Z,2028
2016-07-06T08:28:24.661Z,2340
2016-07-06T08:29:24.795Z,1500
2016-07-06T08:30:24.956Z,1068
2016-07-06T08:31:24.738Z,1896
2016-07-06T08:32:24.747Z,1892
2016-07-06T08:33:24.861Z,2288
2016-07-06T08:34:24.866Z,2184
2016-07-06T08:35:24.903Z,1540
2016-07-06T08:36:24.911Z,1568
2016-07-06T08:37:24.920Z,1548
2016-07-06T08:38:24.921Z,1464
2016-07-06T08:39:24.931Z,1288
2016-07-06T08:40:24.945Z,1076
2016-07-06T08:41:25.564Z,948
2016-07-06T08:42:25.004Z,976
2016-07-06T08:43:25.053Z,1252
2016-07-06T08:44:25.040Z,1560
2016-07-06T08:45:25.683Z,2128
2016-07-06T08:46:25.100Z,2520
2016-07-06T08:47:25.110Z,1948
2016-07-06T08:48:25.148Z,1084
2016-07-06T08:49:25.167Z,1004
2016-07-06T08:50:25.187Z,1216
2016-07-06T08:51:25.228Z,1272
2016-07-06T08:52:25.224Z,1124
2016-07-06T08:53:25.266Z,772
2016-07-06T08:54:25.913Z,532
2016-07-06T08:55:25.325Z,592
2016-07-06T08:56:25.355Z,840
2016-07-06T08:57:25.371Z,1204
2016-07-06T08:58:25.407Z,1188
2016-07-06T08:59:25.424Z,1184
2016-07-06T09:00:25.455Z,1156
2016-07-06T09:01:25.494Z,1024
2016-07-06T09:02:25.506Z,944
2016-07-06T09:03:25.530Z,920
2016-07-06T09:04:25.556Z,904
2016-07-06T09:05:25.576Z,944
2016-07-06T09:06:25.597Z,1200
2016-07-06T09:07:25.638Z,1896
2016-07-06T09:08:25.663Z,2660
2016-07-06T09:09:25.674Z,2980
2016-07-06T09:10:25.709Z,2008
2016-07-06T09:11:25.735Z,2092
2016-07-06T09:12:25.755Z,1832
2016-07-06T09:13:25.774Z,988
2016-07-06T09:14:25.802Z,1004
2016-07-06T09:15:25.829Z,536
2016-07-06T09:16:25.853Z,836
2016-07-06T09:17:25.877Z,1064
2016-07-06T09:18:26.611Z,904
2016-07-06T09:19:25.929Z,832
2016-07-06T09:20:25.954Z,1296
2016-07-06T09:21:25.978Z,1284
2016-07-06T09:22:26.009Z,1508
2016-07-06T09:23:26.021Z,1780
2016-07-06T09:24:26.057Z,1496
2016-07-06T09:25:26.080Z,1324
2016-07-06T09:26:26.108Z,1624
2016-07-06T09:27:26.143Z,1764
2016-07-06T09:28:26.934Z,1376
2016-07-06T09:29:26.180Z,852
2016-07-06T09:30:26.208Z,920
2016-07-06T09:31:26.229Z,2368
2016-07-06T09:32:26.244Z,2956
2016-07-06T09:33:26.283Z,3136
2016-07-06T09:34:26.318Z,2156
2016-07-06T09:35:26.327Z,2508
2016-07-06T09:36:26.370Z,2960
2016-07-06T09:37:26.389Z,2664
2016-07-06T09:38:26.390Z,1300
2016-07-06T09:39:26.436Z,988
2016-07-06T09:40:27.083Z,896
2016-07-06T09:41:26.578Z,1008
2016-07-06T09:42:26.590Z,1372
2016-07-06T09:43:27.146Z,1312
2016-07-06T09:44:26.779Z,1440
2016-07-06T09:45:26.799Z,1468
2016-07-06T09:46:26.712Z,1744
2016-07-06T09:47:26.710Z,2272
2016-07-06T09:48:26.855Z,2508
2016-07-06T09:49:26.862Z,2232
2016-07-06T09:50:26.878Z,2484
2016-07-06T09:51:26.891Z,2592
2016-07-06T09:52:26.884Z,3052
2016-07-06T09:53:26.897Z,2836
2016-07-06T09:54:26.906Z,2780
2016-07-06T09:55:26.927Z,2788
2016-07-06T09:56:26.919Z,2952
2016-07-06T09:57:26.982Z,2400
2016-07-06T09:58:26.989Z,1708
2016-07-06T09:59:26.931Z,1684
2016-07-06T10:00:27.576Z,1968
2016-07-06T10:01:26.993Z,2124
2016-07-06T10:02:27.028Z,1972
2016-07-06T10:03:27.051Z,2268
2016-07-06T10:04:27.075Z,2632
2016-07-06T10:05:27.103Z,2472
2016-07-06T10:06:27.126Z,1976
2016-07-06T10:07:27.145Z,1700
2016-07-06T10:08:27.173Z,1648
2016-07-06T10:09:27.214Z,1536
2016-07-06T10:10:27.247Z,1224
2016-07-06T10:11:27.252Z,1124
2016-07-06T10:12:27.275Z,1032
2016-07-06T10:13:27.317Z,948
2016-07-06T10:14:27.352Z,1208
2016-07-06T10:15:27.375Z,1676
2016-07-06T10:16:27.401Z,1884
2016-07-06T10:17:27.418Z,1916
2016-07-06T10:18:27.444Z,2724
2016-07-06T10:19:28.154Z,3504
2016-07-06T10:20:27.506Z,3688
2016-07-06T10:21:27.528Z,2916
2016-07-06T10:22:27.555Z,3148
2016-07-06T10:23:27.594Z,3580
2016-07-06T10:24:28.282Z,2740
2016-07-06T10:25:27.635Z,956
2016-07-06T10:26:27.662Z,616
2016-07-06T10:27:28.286Z,380
2016-07-06T10:28:27.698Z,344
2016-07-06T10:29:27.737Z,436
2016-07-06T10:30:27.762Z,520
2016-07-06T10:31:27.788Z,728
2016-07-06T10:32:28.534Z,1128
2016-07-06T10:33:27.843Z,1640
2016-07-06T10:34:28.674Z,2148
2016-07-06T10:35:27.903Z,2232
2016-07-06T10:36:27.938Z,2008
2016-07-06T10:37:27.956Z,3088
2016-07-06T10:38:27.980Z,2640
2016-07-06T10:39:28.011Z,1536
2016-07-06T10:40:28.049Z,2696
2016-07-06T10:41:28.066Z,3272
2016-07-06T10:42:28.103Z,3404
2016-07-06T10:43:28.116Z,3764
2016-07-06T10:44:28.139Z,4088
2016-07-06T10:45:28.161Z,3948
2016-07-06T10:46:28.192Z,4068
2016-07-06T10:47:28.237Z,3384
2016-07-06T10:48:28.251Z,2604
2016-07-06T10:49:28.361Z,2492
2016-07-06T10:50:28.298Z,1672
2016-07-06T10:51:28.327Z,1564
2016-07-06T10:52:28.359Z,1744
2016-07-06T10:53:28.378Z,1904
2016-07-06T10:54:28.413Z,2672
2016-07-06T10:55:28.436Z,3236
2016-07-06T10:56:28.456Z,3296
2016-07-06T10:57:28.490Z,3132
2016-07-06T10:58:28.612Z,3496
2016-07-06T10:59:28.538Z,4164
2016-07-06T11:00:28.575Z,3140
2016-07-06T11:01:28.592Z,3996
2016-07-06T11:02:28.620Z,2844
2016-07-06T11:03:28.650Z,2756
2016-07-06T11:04:28.684Z,3388
2016-07-06T11:05:28.708Z,2816
2016-07-06T11:06:28.730Z,1816
2016-07-06T11:07:28.761Z,1512
2016-07-06T11:08:29.404Z,1084
2016-07-06T11:09:28.819Z,740
2016-07-06T11:10:28.854Z,580
2016-07-06T11:11:28.859Z,592
2016-07-06T11:12:28.893Z,608
2016-07-06T11:13:28.918Z,564
2016-07-06T11:14:28.946Z,604
2016-07-06T11:15:28.969Z,600
2016-07-06T11:16:28.999Z,772
2016-07-06T11:17:29.028Z,908
2016-07-06T11:18:29.675Z,1408
2016-07-06T11:19:29.091Z,2460
2016-07-06T11:20:29.118Z,2452
2016-07-06T11:21:29.133Z,2364
2016-07-06T11:22:29.179Z,2108
2016-07-06T11:23:29.198Z,2816
2016-07-06T11:24:29.222Z,3260
2016-07-06T11:25:29.254Z,2348
2016-07-06T11:26:29.279Z,1676
2016-07-06T11:27:29.304Z,2404
2016-07-06T11:28:29.327Z,5452
2016-07-06T11:29:29.364Z,4132
2016-07-06T11:30:29.381Z,4776
2016-07-06T11:31:29.412Z,2336
2016-07-06T11:32:29.413Z,1616
2016-07-06T11:33:29.462Z,1116
2016-07-06T11:34:29.487Z,1128
2016-07-06T11:35:29.506Z,1160
2016-07-06T11:36:29.544Z,1480
2016-07-06T11:37:29.572Z,1896
2016-07-06T11:38:29.575Z,1620
2016-07-06T11:39:29.623Z,1740
2016-07-06T11:40:29.657Z,1864
2016-07-06T11:41:29.659Z,1664
2016-07-06T11:42:29.712Z,2136
2016-07-06T11:43:29.737Z,2696
2016-07-06T11:44:29.755Z,2760
2016-07-06T11:45:29.787Z,2776
2016-07-06T11:46:29.803Z,1856
2016-07-06T11:47:29.820Z,2100
2016-07-06T11:48:30.472Z,2848
2016-07-06T11:49:29.879Z,3276
2016-07-06T11:50:29.912Z,4072
2016-07-06T11:51:29.930Z,4724
2016-07-06T11:52:29.966Z,4404
2016-07-06T11:53:29.991Z,2440
2016-07-06T11:54:30.031Z,1872
2016-07-06T11:55:30.045Z,4360
2016-07-06T11:56:30.085Z,4340
2016-07-06T11:57:30.720Z,4368
2016-07-06T11:58:30.144Z,3700
2016-07-06T11:59:30.773Z,3156
2016-07-06T12:00:30.186Z,3172
2016-07-06T12:01:30.828Z,3448
2016-07-06T12:02:30.250Z,4236
2016-07-06T12:03:30.284Z,5336
2016-07-06T12:04:30.315Z,5528
2016-07-06T12:05:30.346Z,3896
2016-07-06T12:06:30.370Z,4624
2016-07-06T12:07:30.390Z,3088
2016-07-06T12:08:30.440Z,1828
2016-07-06T12:09:30.454Z,1556
2016-07-06T12:10:30.476Z,1348
2016-07-06T12:11:30.511Z,1080
2016-07-06T12:12:30.549Z,892
2016-07-06T12:13:30.560Z,880
2016-07-06T12:14:30.608Z,1372
2016-07-06T12:15:30.620Z,1796
2016-07-06T12:16:30.654Z,1744
2016-07-06T12:17:30.698Z,1852
2016-07-06T12:18:30.717Z,1680
2016-07-06T12:19:30.743Z,2096
2016-07-06T12:20:30.764Z,3668
2016-07-06T12:21:30.806Z,3744
2016-07-06T12:22:30.830Z,3620
2016-07-06T12:23:30.864Z,3600
2016-07-06T12:24:30.883Z,3736
2016-07-06T12:25:30.918Z,3848
2016-07-06T12:26:30.937Z,3276
2016-07-06T12:27:31.630Z,2384
2016-07-06T12:28:31.012Z,3720
2016-07-06T12:29:31.013Z,3824
2016-07-06T12:30:31.063Z,3672
2016-07-06T12:31:31.086Z,3712
2016-07-06T12:32:31.125Z,3744
2016-07-06T12:33:31.142Z,3804
2016-07-06T12:34:31.182Z,3800
2016-07-06T12:35:31.206Z,3812
2016-07-06T12:36:31.214Z,3920
2016-07-06T12:37:32.716Z,4288
2016-07-06T12:38:31.445Z,5068
2016-07-06T12:39:31.473Z,5608
2016-07-06T12:40:31.603Z,3660
2016-07-06T12:41:31.477Z,4340
2016-07-06T12:42:31.588Z,2816
2016-07-06T12:43:31.667Z,5452
2016-07-06T12:44:31.627Z,3036
2016-07-06T12:45:31.627Z,4712
2016-07-06T12:46:31.672Z,4368
2016-07-06T12:47:31.683Z,5356
2016-07-06T12:48:31.690Z,7088
2016-07-06T12:49:31.673Z,6072
2016-07-06T12:50:31.891Z,3980
2016-07-06T12:51:31.716Z,2708
2016-07-06T12:52:31.761Z,1464
2016-07-06T12:53:31.777Z,1064
2016-07-06T12:54:31.792Z,1096
2016-07-06T12:55:31.842Z,1240
2016-07-06T12:56:31.861Z,980
2016-07-06T12:57:31.904Z,788
2016-07-06T12:58:31.922Z,640
2016-07-06T12:59:31.950Z,492
2016-07-06T13:00:32.010Z,472
2016-07-06T13:01:32.035Z,540
2016-07-06T13:02:32.043Z,596
2016-07-06T13:03:32.090Z,528
2016-07-06T13:04:32.110Z,524
2016-07-06T13:05:32.744Z,724
2016-07-06T13:06:32.184Z,1300
2016-07-06T13:07:32.192Z,2016
2016-07-06T13:08:32.229Z,2344
2016-07-06T13:09:32.271Z,2180
2016-07-06T13:10:32.294Z,5816
2016-07-06T13:11:32.310Z,2956
2016-07-06T13:12:32.372Z,2512
2016-07-06T13:13:32.385Z,4596
2016-07-06T13:14:32.398Z,4456
2016-07-06T13:15:32.420Z,4632
2016-07-06T13:16:32.452Z,5176
2016-07-06T13:17:32.498Z,6244
2016-07-06T13:18:32.530Z,7272
2016-07-06T13:19:32.548Z,6080
2016-07-06T13:20:32.591Z,7148
2016-07-06T13:21:32.595Z,3832
2016-07-06T13:22:32.609Z,4280
2016-07-06T13:23:32.677Z,4464
2016-07-06T13:24:32.714Z,5104
2016-07-06T13:25:32.724Z,6712
2016-07-06T13:26:32.762Z,1896
2016-07-06T13:27:32.763Z,1236
2016-07-06T13:28:32.824Z,860
2016-07-06T13:29:32.868Z,628
2016-07-06T13:30:32.879Z,636
2016-07-06T13:31:32.890Z,724
2016-07-06T13:32:32.916Z,1024
2016-07-06T13:33:32.942Z,1416
2016-07-06T13:34:32.983Z,1704
2016-07-06T13:35:33.020Z,1720
2016-07-06T13:36:33.042Z,1936
2016-07-06T13:37:33.093Z,2392
2016-07-06T13:38:33.101Z,2520
2016-07-06T13:39:33.143Z,1932
2016-07-06T13:40:33.160Z,6044
2016-07-06T13:41:33.299Z,7008
2016-07-06T13:42:33.296Z,3312
2016-07-06T13:43:33.476Z,3476
2016-07-06T13:44:33.476Z,6420
2016-07-06T13:45:33.493Z,2908
2016-07-06T13:46:33.510Z,5648
2016-07-06T13:47:33.505Z,5520